createdAt,value
2023-03-20T00:01:36.958Z,4.8
2023-03-20T00:06:36.330Z,4.8
2023-03-20T00:11:36.382Z,4.8
2023-03-20T00:16:36.337Z,4.8
2023-03-20T00:21:36.510Z,4.8
2023-03-20T00:26:36.325Z,4.8
2023-03-20T00:31:36.324Z,4.8
2023-03-20T00:36:36.529Z,4.8
2023-03-20T00:41:36.351Z,4.9
2023-03-20T00:46:36.348Z,4.9
2023-03-20T00:51:36.403Z,4.9
2023-03-20T00:56:36.336Z,5.0
2023-03-20T01:01:36.435Z,5.0
2023-03-20T01:06:36.415Z,5.0
2023-03-20T01:11:36.345Z,5.0
2023-03-20T01:16:36.341Z,5.0
2023-03-20T01:21:36.493Z,5.1
2023-03-20T01:26:36.291Z,5.1
2023-03-20T01:31:36.754Z,5.0
2023-03-20T01:36:36.358Z,5.0
2023-03-20T01:41:36.220Z,5.0
2023-03-20T01:46:36.265Z,5.0
2023-03-20T01:51:36.255Z,5.0
2023-03-20T01:56:36.226Z,5.1
2023-03-20T02:01:36.264Z,5.1
2023-03-20T02:06:36.362Z,5.1
2023-03-20T02:11:36.175Z,5.1
2023-03-20T02:16:36.238Z,5.1
2023-03-20T02:21:36.268Z,5.2
2023-03-20T02:26:36.077Z,5.2
2023-03-20T02:31:36.047Z,5.2
2023-03-20T02:36:36.264Z,5.3
2023-03-20T02:41:42.861Z,5.3
2023-03-20T02:46:36.032Z,5.3
2023-03-20T02:51:36.062Z,5.3
2023-03-20T02:56:36.091Z,5.4
2023-03-20T03:01:36.086Z,5.4
2023-03-20T03:06:36.003Z,5.4
2023-03-20T03:11:36.007Z,5.4
2023-03-20T03:16:36.053Z,5.4
2023-03-20T03:21:36.219Z,5.5
2023-03-20T03:26:35.950Z,5.5
2023-03-20T03:31:36.017Z,5.5
2023-03-20T03:36:36.172Z,5.5
2023-03-20T03:41:36.198Z,5.6
2023-03-20T03:46:36.001Z,5.6
2023-03-20T03:51:36.006Z,5.6
2023-03-20T03:56:35.971Z,5.6
2023-03-20T04:01:36.170Z,5.6
2023-03-20T04:06:36.030Z,5.5
2023-03-20T04:11:36.918Z,5.5
2023-03-20T04:16:35.903Z,5.5
2023-03-20T04:21:35.947Z,5.5
2023-03-20T04:26:35.972Z,5.4
2023-03-20T04:31:35.965Z,5.4
2023-03-20T04:36:36.057Z,5.4
2023-03-20T04:41:36.565Z,5.4
2023-03-20T04:46:35.943Z,5.4
2023-03-20T04:51:35.810Z,5.4
2023-03-20T04:56:36.019Z,5.4
2023-03-20T05:01:35.957Z,5.4
2023-03-20T05:06:35.798Z,5.4
2023-03-20T05:11:36.039Z,5.4
2023-03-20T05:16:35.820Z,5.3
2023-03-20T05:21:35.854Z,5.3
2023-03-20T05:26:35.958Z,5.3
2023-03-20T05:31:35.728Z,5.3
2023-03-20T05:36:35.747Z,5.3
2023-03-20T05:41:35.880Z,5.3
2023-03-20T05:46:35.866Z,5.4
2023-03-20T05:51:36.038Z,5.5
2023-03-20T05:56:35.947Z,5.6
2023-03-20T06:01:35.675Z,5.7
2023-03-20T06:06:35.683Z,5.8
2023-03-20T06:11:37.610Z,6.0
2023-03-20T06:16:35.731Z,6.2
2023-03-20T06:21:35.626Z,6.3
2023-03-20T06:26:35.778Z,6.4
2023-03-20T06:31:35.721Z,6.5
2023-03-20T06:36:35.730Z,6.6
2023-03-20T06:41:35.932Z,6.7
2023-03-20T06:46:35.843Z,6.8
2023-03-20T06:51:35.808Z,7.0
2023-03-20T06:56:35.706Z,7.2
2023-03-20T07:01:35.629Z,7.3
2023-03-20T07:06:35.678Z,7.5
2023-03-20T07:11:35.840Z,7.7
2023-03-20T07:16:35.673Z,7.9
2023-03-20T07:21:35.587Z,8.1
2023-03-20T07:26:35.514Z,8.4
2023-03-20T07:31:35.730Z,8.7
2023-03-20T07:36:35.640Z,8.9
2023-03-20T07:41:35.868Z,9.1
2023-03-20T07:46:35.546Z,9.3
2023-03-20T07:51:35.519Z,9.4
2023-03-20T07:56:35.700Z,9.6
2023-03-20T08:01:35.700Z,9.7
2023-03-20T08:06:35.631Z,9.7
2023-03-20T08:11:35.527Z,9.6
2023-03-20T08:16:35.608Z,9.5
2023-03-20T08:21:35.566Z,9.6
2023-03-20T08:26:35.636Z,9.6
2023-03-20T08:31:35.798Z,9.7
2023-03-20T08:36:35.378Z,9.9
2023-03-20T08:41:35.562Z,9.9
2023-03-20T08:46:35.585Z,9.8
2023-03-20T08:51:35.383Z,9.8
2023-03-20T08:56:35.689Z,9.8
2023-03-20T09:01:48.327Z,9.8
2023-03-20T09:06:35.471Z,9.8
2023-03-20T09:11:35.593Z,9.8
2023-03-20T09:16:35.821Z,9.7
2023-03-20T09:21:35.371Z,9.6
2023-03-20T09:26:35.453Z,9.6
2023-03-20T09:31:35.793Z,9.6
2023-03-20T09:36:36.187Z,9.6
2023-03-20T09:41:45.572Z,9.6
2023-03-20T09:46:35.390Z,9.6
2023-03-20T09:51:35.302Z,9.5
2023-03-20T09:56:35.433Z,9.5
2023-03-20T10:01:37.145Z,9.5
2023-03-20T10:06:35.555Z,9.4
2023-03-20T10:11:35.359Z,9.5
2023-03-20T10:16:36.056Z,9.5
2023-03-20T10:21:35.227Z,9.6
2023-03-20T10:26:35.306Z,9.6
2023-03-20T10:31:35.616Z,9.7
2023-03-20T10:36:36.150Z,9.7
2023-03-20T10:41:35.389Z,9.7
2023-03-20T10:46:35.761Z,9.8
2023-03-20T10:51:35.435Z,9.8
2023-03-20T10:56:35.290Z,9.8
2023-03-20T11:01:35.920Z,9.9
2023-03-20T11:06:35.356Z,9.9
2023-03-20T11:11:35.257Z,10.0
2023-03-20T11:16:35.274Z,10.1
2023-03-20T11:21:35.530Z,10.2
2023-03-20T11:26:35.188Z,10.4
2023-03-20T11:31:35.234Z,10.5
2023-03-20T11:36:35.710Z,10.6
2023-03-20T11:41:35.167Z,10.7
2023-03-20T11:46:35.561Z,10.7
2023-03-20T11:51:35.305Z,10.7
2023-03-20T11:56:35.817Z,10.8
2023-03-20T12:01:35.061Z,10.9
2023-03-20T12:06:35.244Z,10.9
2023-03-20T12:11:35.097Z,10.9
2023-03-20T12:16:35.100Z,10.9
2023-03-20T12:21:35.275Z,10.9
2023-03-20T12:26:35.062Z,10.8
2023-03-20T12:31:35.100Z,10.9
2023-03-20T12:36:35.613Z,11.0
2023-03-20T12:41:35.242Z,11.1
2023-03-20T12:46:35.171Z,11.1
2023-03-20T12:51:35.310Z,11.1
2023-03-20T12:56:35.064Z,11.1
2023-03-20T13:01:35.298Z,11.2
2023-03-20T13:06:35.279Z,11.2
2023-03-20T13:11:35.144Z,11.1
2023-03-20T13:16:35.094Z,11.1
2023-03-20T13:21:38.216Z,11.2
2023-03-20T13:26:34.944Z,11.2
2023-03-20T13:31:35.026Z,11.3
2023-03-20T13:36:35.215Z,11.3
2023-03-20T13:41:34.912Z,11.3
2023-03-20T13:46:35.367Z,11.3
2023-03-20T13:51:35.244Z,11.3
2023-03-20T13:56:35.521Z,11.2
2023-03-20T14:01:34.902Z,11.1
2023-03-20T14:06:35.171Z,11.1
2023-03-20T14:11:35.218Z,11.1
2023-03-20T14:16:34.927Z,11.1
2023-03-20T14:21:34.860Z,11.1
2023-03-20T14:26:34.894Z,11.1
2023-03-20T14:31:35.268Z,11.0
2023-03-20T14:36:35.117Z,11.0
2023-03-20T14:41:35.195Z,11.0
2023-03-20T14:46:35.154Z,11.0
2023-03-20T14:51:34.879Z,11.0
2023-03-20T14:56:34.930Z,10.9
2023-03-20T15:01:34.930Z,10.9
2023-03-20T15:06:35.171Z,10.9
2023-03-20T15:11:34.787Z,10.9
2023-03-20T15:16:34.879Z,10.9
2023-03-20T15:21:35.096Z,10.9
2023-03-20T15:26:34.851Z,10.9
2023-03-20T15:31:34.842Z,11.0
2023-03-20T15:36:35.515Z,11.0
2023-03-20T15:41:34.783Z,11.0
2023-03-20T15:46:34.938Z,11.1
2023-03-20T15:51:35.152Z,11.1
2023-03-20T15:56:34.841Z,11.0
2023-03-20T16:01:34.814Z,11.0
2023-03-20T16:06:34.732Z,11.0
2023-03-20T16:11:34.776Z,11.0
2023-03-20T16:16:35.271Z,10.9
2023-03-20T16:21:34.860Z,10.9
2023-03-20T16:26:34.748Z,10.8
2023-03-20T16:31:34.920Z,10.8
2023-03-20T16:36:45.937Z,10.7
2023-03-20T16:41:34.886Z,10.6
2023-03-20T16:46:35.003Z,10.5
2023-03-20T16:51:35.064Z,10.3
2023-03-20T16:56:34.879Z,10.2
2023-03-20T17:01:35.600Z,10.0
2023-03-20T17:06:35.644Z,9.8
2023-03-20T17:11:34.900Z,9.6
2023-03-20T17:16:35.117Z,9.4
2023-03-20T17:21:35.080Z,9.3
2023-03-20T17:26:34.928Z,9.1
2023-03-20T17:31:34.962Z,9.0
2023-03-20T17:36:35.027Z,8.8
2023-03-20T17:41:35.175Z,8.7
2023-03-20T17:46:46.258Z,8.5
2023-03-20T17:51:35.045Z,8.4
2023-03-20T17:56:35.205Z,8.3
2023-03-20T18:01:35.098Z,8.3
2023-03-20T18:06:35.151Z,8.2
2023-03-20T18:11:35.510Z,8.1
2023-03-20T18:16:35.563Z,8.1
2023-03-20T18:21:35.486Z,8.1
2023-03-20T18:26:35.516Z,8.1
2023-03-20T18:31:35.763Z,8.2
2023-03-20T18:36:35.533Z,8.1
2023-03-20T18:41:35.577Z,8.1
2023-03-20T18:46:35.769Z,8.1
2023-03-20T18:51:35.528Z,8.1
2023-03-20T18:56:35.646Z,8.1
2023-03-20T19:01:35.913Z,8.1
2023-03-20T19:06:35.406Z,8.1
2023-03-20T19:11:35.543Z,8.1
2023-03-20T19:16:35.749Z,8.1
2023-03-20T19:21:35.646Z,8.1
2023-03-20T19:26:35.645Z,8.1
2023-03-20T19:31:35.708Z,8.1
2023-03-20T19:36:35.671Z,8.0
2023-03-20T19:41:35.701Z,8.0
2023-03-20T19:46:40.183Z,8.0
2023-03-20T19:51:34.432Z,7.9
2023-03-20T19:56:35.579Z,7.9
2023-03-20T20:01:35.629Z,7.9
2023-03-20T20:06:36.170Z,7.9
2023-03-20T20:11:35.743Z,7.9
2023-03-20T20:16:36.149Z,7.9
2023-03-20T20:22:19.736Z,7.9
2023-03-20T20:26:40.527Z,7.9
2023-03-20T20:31:35.308Z,7.9
2023-03-20T20:37:26.019Z,7.9
2023-03-20T20:41:35.372Z,7.9
2023-03-20T20:46:35.476Z,7.9
2023-03-20T20:51:35.358Z,7.9
2023-03-20T20:56:34.413Z,7.9
2023-03-20T21:01:34.453Z,8.0
2023-03-20T21:07:05.549Z,8.0
2023-03-20T21:11:35.158Z,8.0
2023-03-20T21:16:35.224Z,8.0
2023-03-20T21:21:34.200Z,8.0
2023-03-20T21:26:34.207Z,8.0
2023-03-20T21:31:34.432Z,8.0
2023-03-20T21:36:35.211Z,8.0
2023-03-20T21:41:35.422Z,8.0
2023-03-20T21:57:21.163Z,7.9
2023-03-20T22:02:08.542Z,7.9
2023-03-20T22:07:23.801Z,7.9
2023-03-20T22:12:18.189Z,7.9
2023-03-20T22:17:33.028Z,7.9
2023-03-20T22:22:16.603Z,7.9
2023-03-20T22:27:34.826Z,7.9
2023-03-20T22:37:27.596Z,7.9
2023-03-20T22:42:28.659Z,7.9
2023-03-20T22:46:45.352Z,7.9
2023-03-20T22:51:38.592Z,7.9
2023-03-20T22:56:34.112Z,7.8
2023-03-20T23:01:34.294Z,7.8
2023-03-20T23:06:34.038Z,7.8
2023-03-20T23:11:34.075Z,7.8
2023-03-20T23:16:34.190Z,7.8
2023-03-20T23:21:33.988Z,7.8
2023-03-20T23:26:33.965Z,7.7
2023-03-20T23:31:34.171Z,7.7
2023-03-20T23:36:37.335Z,7.7
2023-03-20T23:42:04.648Z,7.7
2023-03-20T23:46:34.060Z,7.7
2023-03-20T23:51:35.017Z,7.7
2023-03-20T23:56:34.154Z,7.8
